createdAt,value
2023-04-16T00:01:55.295Z,6.75
2023-04-16T00:04:03.862Z,6.75
2023-04-16T00:06:14.881Z,6.70
2023-04-16T00:08:24.635Z,6.66
2023-04-16T00:10:32.609Z,6.66
2023-04-16T00:12:43.452Z,6.60
2023-04-16T00:14:51.355Z,6.67
2023-04-16T00:16:59.316Z,6.74
2023-04-16T00:19:07.813Z,6.73
2023-04-16T00:21:16.032Z,6.82
2023-04-16T00:23:25.502Z,6.80
2023-04-16T00:25:33.608Z,6.73
2023-04-16T00:27:44.214Z,6.76
2023-04-16T00:29:52.296Z,6.71
2023-04-16T00:32:00.189Z,6.71
2023-04-16T00:34:14.737Z,6.66
2023-04-16T00:36:28.388Z,6.70
2023-04-16T00:38:36.350Z,6.65
2023-04-16T00:40:44.560Z,6.76
2023-04-16T00:42:55.154Z,6.76
2023-04-16T00:45:03.354Z,6.64
2023-04-16T00:47:12.776Z,6.68
2023-04-16T00:49:22.022Z,6.68
2023-04-16T00:51:31.354Z,6.56
2023-04-16T00:53:39.931Z,6.62
2023-04-16T00:55:48.646Z,6.60
2023-04-16T00:57:59.718Z,6.57
2023-04-16T01:00:08.989Z,6.71
2023-04-16T01:02:17.311Z,6.74
2023-04-16T01:04:26.622Z,6.66
2023-04-16T01:06:35.150Z,6.69
2023-04-16T01:08:43.365Z,6.74
2023-04-16T01:10:51.520Z,6.70
2023-04-16T01:13:05.236Z,6.68
2023-04-16T01:15:14.279Z,6.80
2023-04-16T01:17:22.851Z,6.79
2023-04-16T01:19:31.500Z,6.80
2023-04-16T01:21:42.030Z,6.76
2023-04-16T01:23:50.827Z,6.85
2023-04-16T01:25:58.989Z,6.79
2023-04-16T01:28:07.540Z,6.81
2023-04-16T01:30:15.612Z,6.78
2023-04-16T01:32:35.106Z,6.69
2023-04-16T01:34:43.182Z,6.69
2023-04-16T01:36:54.157Z,6.65
2023-04-16T01:39:02.623Z,6.73
2023-04-16T01:41:10.702Z,6.79
2023-04-16T01:43:18.969Z,6.75
2023-04-16T01:45:27.016Z,6.73
2023-04-16T01:47:35.253Z,6.72
2023-04-16T01:49:46.960Z,6.74
2023-04-16T01:51:57.922Z,6.62
2023-04-16T01:54:05.980Z,6.72
2023-04-16T01:56:13.893Z,6.59
2023-04-16T01:58:22.652Z,6.57
2023-04-16T02:00:30.819Z,6.65
2023-04-16T02:02:40.502Z,6.67
2023-04-16T02:04:49.266Z,6.69
2023-04-16T02:06:59.876Z,6.73
2023-04-16T02:09:08.192Z,6.65
2023-04-16T02:11:18.692Z,6.67
2023-04-16T02:13:27.717Z,6.71
2023-04-16T02:15:35.872Z,6.74
2023-04-16T02:17:44.058Z,6.70
2023-04-16T02:19:52.425Z,6.69
2023-04-16T02:22:04.638Z,6.66
2023-04-16T02:24:12.694Z,6.68
2023-04-16T02:26:20.696Z,6.63
2023-04-16T02:28:30.135Z,6.69
2023-04-16T02:30:38.633Z,6.68
2023-04-16T02:32:47.480Z,6.62
2023-04-16T02:34:57.243Z,6.63
2023-04-16T02:37:07.842Z,6.59
2023-04-16T02:39:16.505Z,6.63
2023-04-16T02:41:24.384Z,6.59
2023-04-16T02:43:32.981Z,6.56
2023-04-16T02:45:41.106Z,6.63
2023-04-16T02:47:49.409Z,6.59
2023-04-16T02:49:58.620Z,6.60
2023-04-16T02:52:09.232Z,6.61
2023-04-16T02:54:17.199Z,6.59
2023-04-16T02:56:25.402Z,6.56
2023-04-16T02:58:33.942Z,6.63
2023-04-16T03:00:42.501Z,6.56
2023-04-16T03:02:50.757Z,6.64
2023-04-16T03:04:59.338Z,6.69
2023-04-16T03:07:11.393Z,6.58
2023-04-16T03:09:19.788Z,6.58
2023-04-16T03:11:27.658Z,6.67
2023-04-16T03:13:35.590Z,6.74
2023-04-16T03:15:43.573Z,6.68
2023-04-16T03:17:51.638Z,6.66
2023-04-16T03:20:00.049Z,6.76
2023-04-16T03:22:11.210Z,6.63
2023-04-16T03:24:19.393Z,6.67
2023-04-16T03:26:30.024Z,6.77
2023-04-16T03:28:38.458Z,6.71
2023-04-16T03:30:46.525Z,6.66
2023-04-16T03:32:54.835Z,6.70
2023-04-16T03:35:03.291Z,6.82
2023-04-16T03:37:14.770Z,6.81
2023-04-16T03:39:23.005Z,6.66
2023-04-16T03:41:30.975Z,6.64
2023-04-16T03:43:39.945Z,6.67
2023-04-16T03:45:48.905Z,6.62
2023-04-16T03:47:57.904Z,6.69
2023-04-16T03:50:07.543Z,6.74
2023-04-16T03:52:19.076Z,6.77
2023-04-16T03:54:27.221Z,6.66
2023-04-16T03:56:47.195Z,6.68
2023-04-16T03:58:55.187Z,6.77
2023-04-16T04:01:03.178Z,6.71
2023-04-16T04:03:11.902Z,6.65
2023-04-16T04:05:20.203Z,6.71
2023-04-16T04:07:32.537Z,6.77
2023-04-16T04:09:45.959Z,6.70
2023-04-16T04:11:54.291Z,6.74
2023-04-16T04:14:02.838Z,6.71
2023-04-16T04:16:13.298Z,6.67
2023-04-16T04:18:22.700Z,6.74
2023-04-16T04:20:30.727Z,6.66
2023-04-16T04:22:42.100Z,6.58
2023-04-16T04:24:50.066Z,6.63
2023-04-16T04:26:58.447Z,6.66
2023-04-16T04:29:06.453Z,6.68
2023-04-16T04:31:14.703Z,6.58
2023-04-16T04:33:24.499Z,6.53
2023-04-16T04:35:33.834Z,6.52
2023-04-16T04:37:45.262Z,6.57
2023-04-16T04:39:56.898Z,6.59
2023-04-16T04:42:04.887Z,6.56
2023-04-16T04:44:12.991Z,6.54
2023-04-16T04:46:21.160Z,6.67
2023-04-16T04:48:29.101Z,6.65
2023-04-16T04:50:37.537Z,6.65
2023-04-16T04:52:48.547Z,6.54
2023-04-16T04:54:56.657Z,6.65
2023-04-16T04:57:04.589Z,6.63
2023-04-16T04:59:12.826Z,6.56
2023-04-16T05:01:21.516Z,6.50
2023-04-16T05:03:32.791Z,6.57
2023-04-16T05:05:40.950Z,6.61
2023-04-16T05:07:51.487Z,6.57
2023-04-16T05:09:59.565Z,6.52
2023-04-16T05:12:08.578Z,6.42
2023-04-16T05:14:28.725Z,6.42
2023-04-16T05:16:39.545Z,6.59
2023-04-16T05:18:47.501Z,6.57
2023-04-16T05:21:00.970Z,6.53
2023-04-16T05:23:11.576Z,6.60
2023-04-16T05:25:20.425Z,6.63
2023-04-16T05:27:28.273Z,6.51
2023-04-16T05:29:36.178Z,6.56
2023-04-16T05:31:46.823Z,6.58
2023-04-16T05:33:55.162Z,6.57
2023-04-16T05:36:03.102Z,6.62
2023-04-16T05:38:13.539Z,6.58
2023-04-16T05:40:21.618Z,6.53
2023-04-16T05:42:29.728Z,6.56
2023-04-16T05:44:38.141Z,6.52
2023-04-16T05:46:48.000Z,6.64
2023-04-16T05:48:56.027Z,6.65
2023-04-16T05:51:06.776Z,6.58
2023-04-16T05:53:20.303Z,6.59
2023-04-16T05:55:28.431Z,6.62
2023-04-16T05:57:36.645Z,6.62
2023-04-16T05:59:45.143Z,6.75
2023-04-16T06:01:53.251Z,6.68
2023-04-16T06:04:01.634Z,6.66
2023-04-16T06:06:09.739Z,6.64
2023-04-16T06:08:20.396Z,6.66
2023-04-16T06:10:28.304Z,6.49
2023-04-16T06:12:36.764Z,6.50
2023-04-16T06:14:44.806Z,6.60
2023-04-16T06:16:53.005Z,6.59
2023-04-16T06:19:01.114Z,6.66
2023-04-16T06:21:09.483Z,6.81
2023-04-16T06:23:21.479Z,6.67
2023-04-16T06:25:29.473Z,6.73
2023-04-16T06:27:37.556Z,6.66
2023-04-16T06:29:48.377Z,6.65
2023-04-16T06:31:56.389Z,6.67
2023-04-16T06:34:04.421Z,6.71
2023-04-16T06:36:12.615Z,6.83
2023-04-16T06:38:23.533Z,6.79
2023-04-16T06:40:32.137Z,6.77
2023-04-16T06:42:44.893Z,6.73
2023-04-16T06:44:53.914Z,6.64
2023-04-16T06:47:04.924Z,6.81
2023-04-16T06:49:13.188Z,6.95
2023-04-16T06:51:21.118Z,6.92
2023-04-16T06:53:32.082Z,6.84
2023-04-16T06:55:40.097Z,6.89
2023-04-16T06:57:50.476Z,6.86
2023-04-16T07:00:00.833Z,6.97
2023-04-16T07:02:09.242Z,6.87
2023-04-16T07:04:17.325Z,6.94
2023-04-16T07:06:25.381Z,6.84
2023-04-16T07:08:36.658Z,6.85
2023-04-16T07:10:45.128Z,6.98
2023-04-16T07:12:55.266Z,6.93
2023-04-16T07:15:03.445Z,6.77
2023-04-16T07:17:11.861Z,6.73
2023-04-16T07:19:21.452Z,6.74
2023-04-16T07:21:34.574Z,6.84
2023-04-16T07:23:48.194Z,6.89
2023-04-16T07:25:57.868Z,6.84
2023-04-16T07:28:08.711Z,6.87
2023-04-16T07:30:17.177Z,6.88
2023-04-16T07:32:25.563Z,6.94
2023-04-16T07:34:33.577Z,6.98
2023-04-16T07:36:42.954Z,7.03
2023-04-16T07:38:54.274Z,7.06
2023-04-16T07:41:07.236Z,7.01
2023-04-16T07:43:16.935Z,7.11
2023-04-16T07:45:25.175Z,7.11
2023-04-16T07:47:33.301Z,7.14
2023-04-16T07:49:42.174Z,7.10
2023-04-16T07:51:50.563Z,7.11
2023-04-16T07:54:01.195Z,7.18
2023-04-16T07:56:11.018Z,7.20
2023-04-16T07:58:21.735Z,7.29
2023-04-16T08:00:29.890Z,7.19
2023-04-16T08:02:38.059Z,7.15
2023-04-16T08:04:46.960Z,7.19
2023-04-16T08:06:55.502Z,7.06
2023-04-16T08:09:06.611Z,7.22
2023-04-16T08:11:15.729Z,7.31
2023-04-16T08:13:27.788Z,7.28
2023-04-16T08:15:35.976Z,7.29
2023-04-16T08:17:44.529Z,7.32
2023-04-16T08:19:53.294Z,7.39
2023-04-16T08:22:01.573Z,7.30
2023-04-16T08:24:13.139Z,7.23
2023-04-16T08:26:21.395Z,7.20
2023-04-16T08:28:29.471Z,7.14
2023-04-16T08:30:39.178Z,7.23
2023-04-16T08:32:50.219Z,7.21
2023-04-16T08:34:59.545Z,7.35
2023-04-16T08:37:09.612Z,7.40
2023-04-16T08:39:23.760Z,7.42
2023-04-16T08:41:37.160Z,7.56
2023-04-16T08:43:48.226Z,7.39
2023-04-16T08:46:00.335Z,7.31
2023-04-16T08:48:13.735Z,7.47
2023-04-16T08:50:27.005Z,7.52
2023-04-16T08:52:40.831Z,7.54
2023-04-16T08:55:05.976Z,7.43
2023-04-16T08:57:16.002Z,7.45
2023-04-16T08:59:29.658Z,7.46
2023-04-16T09:01:42.449Z,7.56
2023-04-16T09:03:51.619Z,7.66
2023-04-16T09:06:01.371Z,7.62
2023-04-16T09:08:14.089Z,7.82
2023-04-16T09:10:26.813Z,8.03
2023-04-16T09:12:35.171Z,8.17
2023-04-16T09:14:44.978Z,8.05
2023-04-16T09:17:01.423Z,8.12
2023-04-16T09:19:09.968Z,8.14
2023-04-16T09:21:19.048Z,8.19
2023-04-16T09:23:27.973Z,8.27
2023-04-16T09:25:40.355Z,8.21
2023-04-16T09:27:52.275Z,8.17
2023-04-16T09:30:01.141Z,8.21
2023-04-16T09:32:18.253Z,8.11
2023-04-16T09:34:27.613Z,8.01
2023-04-16T09:36:36.312Z,7.91
2023-04-16T09:38:59.876Z,7.99
2023-04-16T09:41:17.805Z,8.20
2023-04-16T09:43:31.816Z,8.00
2023-04-16T09:45:57.832Z,8.08
2023-04-16T09:48:08.369Z,8.06
2023-04-16T09:50:27.926Z,8.26
2023-04-16T09:52:50.140Z,8.15
2023-04-16T09:54:58.409Z,8.30
2023-04-16T09:57:13.863Z,8.28
2023-04-16T09:59:22.388Z,8.38
2023-04-16T10:01:32.958Z,8.38
2023-04-16T10:03:43.518Z,8.22
2023-04-16T10:05:51.898Z,8.27
2023-04-16T10:08:04.924Z,8.45
2023-04-16T10:10:13.771Z,8.18
2023-04-16T10:12:26.305Z,8.50
2023-04-16T10:14:36.765Z,8.45
2023-04-16T10:16:45.573Z,8.34
2023-04-16T10:18:54.937Z,8.17
2023-04-16T10:21:05.705Z,8.13
2023-04-16T10:23:14.930Z,8.14
2023-04-16T10:25:23.685Z,8.02
2023-04-16T10:27:34.710Z,8.03
2023-04-16T10:29:45.541Z,8.15
2023-04-16T10:32:02.827Z,8.39
2023-04-16T10:34:12.131Z,8.36
2023-04-16T10:36:26.998Z,8.49
2023-04-16T10:38:35.524Z,8.56
2023-04-16T10:40:48.414Z,8.73
2023-04-16T10:43:03.508Z,8.57
2023-04-16T10:45:15.096Z,8.41
2023-04-16T10:47:23.147Z,8.43
2023-04-16T10:49:31.261Z,8.49
2023-04-16T10:51:39.666Z,8.50
2023-04-16T10:53:48.643Z,8.43
2023-04-16T10:56:18.454Z,8.64
2023-04-16T10:58:33.860Z,8.67
2023-04-16T11:00:53.402Z,8.63
2023-04-16T11:03:07.564Z,8.65
2023-04-16T11:05:17.196Z,8.48
2023-04-16T11:07:36.434Z,8.45
2023-04-16T11:09:56.084Z,8.59
2023-04-16T11:12:06.510Z,8.50
2023-04-16T11:14:18.709Z,8.42
2023-04-16T11:16:31.427Z,8.40
2023-04-16T11:18:50.867Z,8.43
2023-04-16T11:21:01.035Z,8.65
2023-04-16T11:23:15.555Z,8.65
2023-04-16T11:25:27.329Z,8.73
2023-04-16T11:27:38.007Z,8.94
2023-04-16T11:29:48.686Z,8.84
2023-04-16T11:32:02.269Z,8.55
2023-04-16T11:34:13.421Z,8.63
2023-04-16T11:36:21.886Z,8.71
2023-04-16T11:38:43.967Z,8.52
2023-04-16T11:40:55.500Z,8.57
2023-04-16T11:43:16.039Z,8.57
2023-04-16T11:45:32.048Z,8.47
2023-04-16T11:47:46.897Z,8.44
2023-04-16T11:49:55.826Z,8.28
2023-04-16T11:52:06.628Z,8.27
2023-04-16T11:54:24.592Z,8.23
2023-04-16T11:56:37.595Z,8.35
2023-04-16T11:58:46.820Z,8.35
2023-04-16T12:01:00.159Z,8.25
2023-04-16T12:03:13.340Z,8.38
2023-04-16T12:05:35.515Z,8.36
2023-04-16T12:07:49.381Z,8.64
2023-04-16T12:10:09.070Z,8.58
2023-04-16T12:12:32.406Z,8.61
2023-04-16T12:14:53.486Z,8.60
2023-04-16T12:17:24.965Z,8.77
2023-04-16T12:19:33.150Z,8.73
2023-04-16T12:21:44.350Z,8.96
2023-04-16T12:23:56.776Z,8.85
2023-04-16T12:26:11.002Z,8.75
2023-04-16T12:28:35.232Z,8.65
2023-04-16T12:30:53.348Z,8.59
2023-04-16T12:33:19.593Z,8.55
2023-04-16T12:35:34.846Z,8.54
2023-04-16T12:37:43.230Z,8.33
2023-04-16T12:39:51.361Z,8.42
2023-04-16T12:42:11.600Z,8.65
2023-04-16T12:44:22.465Z,8.69
2023-04-16T12:46:30.497Z,8.71
2023-04-16T12:48:41.852Z,8.76
2023-04-16T12:50:50.413Z,8.76
2023-04-16T12:53:01.546Z,8.84
2023-04-16T12:55:14.480Z,8.90
2023-04-16T12:57:28.792Z,8.83
2023-04-16T12:59:40.684Z,8.94
2023-04-16T13:01:51.216Z,8.86
2023-04-16T13:04:04.791Z,8.97
2023-04-16T13:06:18.208Z,9.06
2023-04-16T13:08:28.629Z,8.97
2023-04-16T13:10:39.948Z,8.80
2023-04-16T13:12:49.294Z,8.90
2023-04-16T13:14:57.709Z,8.78
2023-04-16T13:17:06.211Z,8.93
2023-04-16T13:19:20.159Z,8.78
2023-04-16T13:21:28.487Z,8.86
2023-04-16T13:23:39.841Z,8.76
2023-04-16T13:25:50.159Z,8.73
2023-04-16T13:27:58.988Z,8.85
2023-04-16T13:30:07.899Z,8.76
2023-04-16T13:32:16.813Z,8.64
2023-04-16T13:34:27.520Z,8.61
2023-04-16T13:36:37.739Z,8.55
2023-04-16T13:38:45.996Z,8.31
2023-04-16T13:40:56.000Z,8.35
2023-04-16T13:43:04.990Z,8.55
2023-04-16T13:45:15.320Z,8.52
2023-04-16T13:47:24.026Z,8.58
2023-04-16T13:49:36.097Z,8.67
2023-04-16T13:51:47.362Z,8.61
2023-04-16T13:53:58.939Z,8.31
2023-04-16T13:56:14.452Z,8.26
2023-04-16T13:58:24.872Z,8.35
2023-04-16T14:00:33.200Z,8.42
2023-04-16T14:02:42.572Z,8.41
2023-04-16T14:04:54.144Z,8.38
2023-04-16T14:07:02.604Z,8.38
2023-04-16T14:09:12.778Z,8.42
2023-04-16T14:11:21.322Z,8.32
2023-04-16T14:13:32.189Z,8.19
2023-04-16T14:15:41.047Z,8.31
2023-04-16T14:17:51.175Z,8.42
2023-04-16T14:20:04.165Z,8.42
2023-04-16T14:22:12.553Z,8.57
2023-04-16T14:24:21.707Z,8.67
2023-04-16T14:26:32.321Z,8.43
2023-04-16T14:28:41.302Z,8.45
2023-04-16T14:30:49.342Z,8.60
2023-04-16T14:33:00.215Z,8.49
2023-04-16T14:35:12.471Z,8.43
2023-04-16T14:37:24.298Z,8.42
2023-04-16T14:39:33.488Z,8.59
2023-04-16T14:41:47.490Z,8.41
2023-04-16T14:43:57.547Z,8.35
2023-04-16T14:46:07.977Z,8.39
2023-04-16T14:48:16.313Z,8.41
2023-04-16T14:50:28.304Z,8.34
2023-04-16T14:52:37.254Z,8.36
2023-04-16T14:54:46.064Z,8.23
2023-04-16T14:56:56.809Z,8.33
2023-04-16T14:59:05.482Z,8.31
2023-04-16T15:01:16.111Z,8.34
2023-04-16T15:03:26.000Z,8.34
2023-04-16T15:05:39.084Z,8.27
2023-04-16T15:07:53.082Z,8.29
2023-04-16T15:10:04.270Z,8.33
2023-04-16T15:12:18.004Z,8.30
2023-04-16T15:14:28.779Z,8.33
2023-04-16T15:16:37.185Z,8.29
2023-04-16T15:18:50.218Z,8.26
2023-04-16T15:21:03.965Z,8.23
2023-04-16T15:23:11.904Z,8.16
2023-04-16T15:25:21.187Z,8.18
2023-04-16T15:27:30.240Z,8.22
2023-04-16T15:29:41.308Z,8.23
2023-04-16T15:31:51.113Z,8.19
2023-04-16T15:34:00.190Z,8.18
2023-04-16T15:36:11.608Z,8.21
2023-04-16T15:38:23.854Z,8.18
2023-04-16T15:40:33.549Z,8.07
2023-04-16T15:42:41.995Z,8.11
2023-04-16T15:44:50.375Z,8.05
2023-04-16T15:47:01.677Z,8.09
2023-04-16T15:49:09.911Z,8.07
2023-04-16T15:51:21.106Z,8.00
2023-04-16T15:53:29.371Z,7.95
2023-04-16T15:55:38.281Z,8.00
2023-04-16T15:57:47.258Z,8.11
2023-04-16T16:00:05.967Z,8.09
2023-04-16T16:02:16.905Z,8.14
2023-04-16T16:04:26.756Z,8.04
2023-04-16T16:06:39.261Z,8.06
2023-04-16T16:08:48.680Z,7.98
2023-04-16T16:10:56.687Z,7.98
2023-04-16T16:13:13.149Z,8.03
2023-04-16T16:15:21.960Z,7.97
2023-04-16T16:17:31.642Z,7.98
2023-04-16T16:19:41.851Z,7.99
2023-04-16T16:21:52.387Z,8.08
2023-04-16T16:24:03.706Z,8.05
2023-04-16T16:26:21.515Z,8.05
2023-04-16T16:28:38.488Z,7.98
2023-04-16T16:31:02.633Z,7.92
2023-04-16T16:33:19.535Z,7.93
2023-04-16T16:35:29.197Z,7.99
2023-04-16T16:37:45.070Z,8.03
2023-04-16T16:39:58.124Z,8.02
2023-04-16T16:42:10.286Z,7.97
2023-04-16T16:44:18.552Z,8.02
2023-04-16T16:46:27.251Z,7.92
2023-04-16T16:48:35.621Z,7.91
2023-04-16T16:50:43.601Z,8.01
2023-04-16T16:52:54.284Z,7.92
2023-04-16T16:55:04.393Z,7.90
2023-04-16T16:57:15.913Z,7.97
2023-04-16T16:59:24.098Z,7.95
2023-04-16T17:01:32.885Z,7.92
2023-04-16T17:03:42.151Z,7.97
2023-04-16T17:05:50.477Z,8.01
2023-04-16T17:08:01.152Z,7.97
2023-04-16T17:10:11.417Z,8.02
2023-04-16T17:12:23.493Z,7.94
2023-04-16T17:14:31.468Z,7.93
2023-04-16T17:16:39.974Z,8.00
2023-04-16T17:18:48.206Z,8.00
2023-04-16T17:20:57.373Z,7.97
2023-04-16T17:23:08.057Z,7.95
2023-04-16T17:25:19.056Z,7.92
2023-04-16T17:27:29.538Z,7.97
2023-04-16T17:29:37.711Z,8.06
2023-04-16T17:31:45.997Z,8.09
2023-04-16T17:33:53.974Z,7.99
2023-04-16T17:36:04.389Z,8.03
2023-04-16T17:38:15.406Z,7.92
2023-04-16T17:40:23.416Z,7.92
2023-04-16T17:42:35.058Z,7.95
2023-04-16T17:44:43.156Z,8.00
2023-04-16T17:46:51.380Z,7.97
2023-04-16T17:48:59.403Z,8.00
2023-04-16T17:51:14.601Z,7.96
2023-04-16T17:53:25.253Z,7.97
2023-04-16T17:55:35.896Z,7.97
2023-04-16T17:57:44.877Z,7.93
2023-04-16T17:59:53.335Z,7.94
2023-04-16T18:02:02.276Z,7.88
2023-04-16T18:04:11.044Z,7.84
2023-04-16T18:06:19.957Z,7.89
2023-04-16T18:08:30.738Z,7.90
2023-04-16T18:10:38.827Z,7.87
2023-04-16T18:12:46.864Z,7.94
2023-04-16T18:14:55.196Z,7.88
2023-04-16T18:17:06.187Z,7.83
2023-04-16T18:19:14.515Z,7.85
2023-04-16T18:21:22.809Z,7.87
2023-04-16T18:23:33.538Z,7.83
2023-04-16T18:25:41.436Z,7.85
2023-04-16T18:27:49.374Z,7.83
2023-04-16T18:29:57.989Z,7.90
2023-04-16T18:32:06.101Z,7.81
2023-04-16T18:34:14.597Z,7.84
2023-04-16T18:36:22.602Z,7.84
2023-04-16T18:38:33.355Z,7.83
2023-04-16T18:40:41.851Z,7.79
2023-04-16T18:42:49.800Z,7.77
2023-04-16T18:44:59.446Z,7.74
2023-04-16T18:47:07.929Z,7.64
2023-04-16T18:49:16.383Z,7.66
2023-04-16T18:51:27.539Z,7.63
2023-04-16T18:53:38.236Z,7.69
2023-04-16T18:55:55.788Z,7.63
2023-04-16T18:58:05.019Z,7.64
2023-04-16T19:00:14.347Z,7.78
2023-04-16T19:02:23.171Z,7.72
2023-04-16T19:04:38.881Z,7.78
2023-04-16T19:06:48.652Z,7.84
2023-04-16T19:08:59.421Z,7.78
2023-04-16T19:11:07.472Z,7.76
2023-04-16T19:13:30.966Z,7.72
2023-04-16T19:15:41.227Z,7.71
2023-04-16T19:17:53.165Z,7.73
2023-04-16T19:20:01.346Z,7.73
2023-04-16T19:22:09.633Z,7.73
2023-04-16T19:24:20.356Z,7.61
2023-04-16T19:26:28.680Z,7.69
2023-04-16T19:28:38.872Z,7.71
2023-04-16T19:30:47.138Z,7.71
2023-04-16T19:32:55.870Z,7.67
2023-04-16T19:35:04.035Z,7.63
2023-04-16T19:37:12.207Z,7.72
2023-04-16T19:39:22.738Z,7.63
2023-04-16T19:41:30.803Z,7.55
2023-04-16T19:43:38.915Z,7.62
2023-04-16T19:45:47.105Z,7.74
2023-04-16T19:47:55.294Z,7.69
2023-04-16T19:50:03.220Z,7.64
2023-04-16T19:52:11.222Z,7.68
2023-04-16T19:54:19.282Z,7.59
2023-04-16T19:56:30.130Z,7.61
2023-04-16T19:58:39.504Z,7.58
2023-04-16T20:00:47.740Z,7.54
2023-04-16T20:02:56.099Z,7.52
2023-04-16T20:05:04.462Z,7.50
2023-04-16T20:07:13.772Z,7.58
2023-04-16T20:09:22.131Z,7.56
2023-04-16T20:11:33.398Z,7.52
2023-04-16T20:13:41.950Z,7.49
2023-04-16T20:15:50.374Z,7.45
2023-04-16T20:17:58.847Z,7.49
2023-04-16T20:20:10.225Z,7.55
2023-04-16T20:22:18.927Z,7.52
2023-04-16T20:24:26.886Z,7.47
2023-04-16T20:26:37.865Z,7.56
2023-04-16T20:28:46.059Z,7.51
2023-04-16T20:31:06.996Z,7.56
2023-04-16T20:33:15.270Z,7.58
2023-04-16T20:35:23.167Z,7.57
2023-04-16T20:37:32.777Z,7.57
2023-04-16T20:39:42.401Z,7.54
2023-04-16T20:41:57.199Z,7.40
2023-04-16T20:44:05.626Z,7.50
2023-04-16T20:46:15.245Z,7.43
2023-04-16T20:48:23.291Z,7.44
2023-04-16T20:50:32.161Z,7.42
2023-04-16T20:52:40.522Z,7.44
2023-04-16T20:54:52.172Z,7.41
2023-04-16T20:57:04.873Z,7.44
2023-04-16T20:59:13.441Z,7.46
2023-04-16T21:01:21.563Z,7.45
2023-04-16T21:03:30.133Z,7.44
2023-04-16T21:05:38.320Z,7.41
2023-04-16T21:07:46.820Z,7.39
2023-04-16T21:09:54.874Z,7.43
2023-04-16T21:12:05.824Z,7.47
2023-04-16T21:14:14.458Z,7.45
2023-04-16T21:16:23.156Z,7.41
2023-04-16T21:18:31.246Z,7.52
2023-04-16T21:20:39.412Z,7.53
2023-04-16T21:22:47.418Z,7.46
2023-04-16T21:24:55.756Z,7.42
2023-04-16T21:27:06.546Z,7.45
2023-04-16T21:29:14.976Z,7.41
2023-04-16T21:31:23.261Z,7.37
2023-04-16T21:33:31.660Z,7.40
2023-04-16T21:35:39.629Z,7.44
2023-04-16T21:37:47.735Z,7.41
2023-04-16T21:39:56.070Z,7.54
2023-04-16T21:42:07.036Z,7.52
2023-04-16T21:44:15.247Z,7.43
2023-04-16T21:46:23.506Z,7.57
2023-04-16T21:48:31.541Z,7.50
2023-04-16T21:50:39.661Z,7.45
2023-04-16T21:52:49.400Z,7.47
2023-04-16T21:54:57.657Z,7.39
2023-04-16T21:57:08.344Z,7.42
2023-04-16T21:59:16.353Z,7.43
2023-04-16T22:01:24.364Z,7.42
2023-04-16T22:03:33.595Z,7.43
2023-04-16T22:05:41.656Z,7.37
2023-04-16T22:07:49.517Z,7.54
2023-04-16T22:09:57.734Z,7.42
2023-04-16T22:12:10.422Z,7.51
2023-04-16T22:14:18.523Z,7.50
2023-04-16T22:16:26.917Z,7.54
2023-04-16T22:18:35.604Z,7.49
2023-04-16T22:20:47.394Z,7.51
2023-04-16T22:22:58.982Z,7.46
2023-04-16T22:25:07.654Z,7.46
2023-04-16T22:27:18.188Z,7.45
2023-04-16T22:29:26.103Z,7.48
2023-04-16T22:31:34.719Z,7.48
2023-04-16T22:33:42.625Z,7.62
2023-04-16T22:35:50.744Z,7.59
2023-04-16T22:37:58.686Z,7.58
2023-04-16T22:40:08.509Z,7.50
2023-04-16T22:42:19.216Z,7.50
2023-04-16T22:44:27.036Z,7.55
2023-04-16T22:46:35.306Z,7.44
2023-04-16T22:48:43.789Z,7.55
2023-04-16T22:50:51.732Z,7.59
2023-04-16T22:53:00.552Z,7.67
2023-04-16T22:55:09.896Z,7.54
2023-04-16T22:57:21.302Z,7.41
2023-04-16T22:59:29.296Z,7.42
2023-04-16T23:01:38.739Z,7.43
2023-04-16T23:03:48.788Z,7.56
2023-04-16T23:05:56.796Z,7.51
2023-04-16T23:08:04.828Z,7.57
2023-04-16T23:10:13.379Z,7.58
2023-04-16T23:12:23.983Z,7.59
2023-04-16T23:14:31.982Z,7.47
2023-04-16T23:16:39.760Z,7.48
2023-04-16T23:18:47.657Z,7.47
2023-04-16T23:20:55.960Z,7.59
2023-04-16T23:23:04.195Z,7.41
2023-04-16T23:25:12.895Z,7.40
2023-04-16T23:27:23.440Z,7.35
2023-04-16T23:29:31.444Z,7.42
2023-04-16T23:31:39.363Z,7.44
2023-04-16T23:33:48.852Z,7.39
2023-04-16T23:35:56.950Z,7.40
2023-04-16T23:38:05.091Z,7.36
2023-04-16T23:40:14.174Z,7.32
2023-04-16T23:42:24.904Z,7.33
2023-04-16T23:44:32.823Z,7.39
2023-04-16T23:46:41.400Z,7.40
2023-04-16T23:48:49.571Z,7.41
2023-04-16T23:50:59.679Z,7.39
2023-04-16T23:53:07.637Z,7.39
2023-04-16T23:55:16.000Z,7.27
2023-04-16T23:57:26.601Z,7.33
2023-04-16T23:59:34.488Z,7.18
